Time;durP1;ratioP1;P1;durP2;ratioP2;P2;SDS_P1;SDS_P2;PMS_P1;PMS_P2;Temp;Humidity;BMP_temperature;BMP_pressure;BME280_temperature;BME280_humidity;BME280_pressure;Samples;Min_cycle;Max_cycle;Signal;HPM_P1;HPM_P2
2023/07/12 05:32:40;;;;;;;;;;;;;;;11.54;100.00;99274.72;5627802;23;19941;-83
2023/07/12 05:35:06;;;;;;;;;;;;;;;11.59;100.00;99282.44;4994242;28;20008;-83
2023/07/12 05:37:31;;;;;;;;;;;;;;;11.56;100.00;99285.25;4994391;28;20047;-85
2023/07/12 05:39:56;;;;;;;;;;;;;;;11.51;100.00;99287.31;4993997;28;19921;-84
2023/07/12 05:42:22;;;;;;;;;;;;;;;11.51;100.00;99285.50;4994103;28;19918;-85
2023/07/12 05:44:47;;;;;;;;;;;;;;;11.50;100.00;99285.59;4993964;28;19913;-84
2023/07/12 05:47:12;;;;;;;;;;;;;;;11.40;100.00;99291.38;5010063;28;19918;-89
2023/07/12 05:49:38;;;;;;;;;;;;;;;11.47;100.00;99294.56;4994185;28;19914;-85
2023/07/12 05:52:03;;;;;;;;;;;;;;;11.43;100.00;99293.88;5013442;28;20373;-84
2023/07/12 05:54:29;;;;;;;;;;;;;;;11.56;100.00;99294.06;5015604;28;19921;-84
2023/07/12 05:56:54;;;;;;;;;;;;;;;11.63;100.00;99295.44;4998020;28;19968;-84
2023/07/12 05:59:20;;;;;;;;;;;;;;;11.64;100.00;99291.00;5015296;28;19922;-84
2023/07/12 06:01:45;;;;;;;;;;;;;;;11.70;100.00;99298.63;5013560;28;20379;-84
2023/07/12 06:04:11;;;;;;;;;;;;;;;11.74;100.00;99302.81;5015441;28;19921;-84
2023/07/12 06:06:36;;;;;;;;;;;;;;;11.81;100.00;99298.88;5015311;28;19964;-85
2023/07/12 06:09:02;;;;;;;;;;;;;;;11.84;100.00;99299.63;5015057;28;19917;-85
2023/07/12 06:11:27;;;;;;;;;;;;;;;11.81;100.00;99301.53;5015504;28;19968;-85
2023/07/12 06:13:52;;;;;;;;;;;;;;;11.83;100.00;99298.78;5014970;28;20417;-84
2023/07/12 06:16:18;;;;;;;;;;;;;;;11.70;100.00;99303.91;5014536;28;20369;-85
2023/07/12 06:18:43;;;;;;;;;;;;;;;11.71;100.00;99302.13;5014157;28;20335;-85
2023/07/12 06:21:09;;;;;;;;;;;;;;;11.73;100.00;99290.47;5014836;28;19917;-84
2023/07/12 06:23:35;;;;;;;;;;;;;;;11.80;100.00;99296.31;4997592;28;19917;-84
2023/07/12 06:26:01;;;;;;;;;;;;;;;11.74;100.00;99300.16;4995062;28;19944;-84
2023/07/12 06:28:27;;;;;;;;;;;;;;;11.76;100.00;99300.94;5014557;28;19918;-85
2023/07/12 06:30:52;;;;;;;;;;;;;;;13.23;100.00;99308.41;4997053;28;19929;-85
2023/07/12 06:33:18;;;;;;;;;;;;;;;11.43;100.00;99315.09;4995852;28;19964;-83
2023/07/12 06:35:43;;;;;;;;;;;;;;;10.81;100.00;99321.91;5014600;28;19921;-86
2023/07/12 06:38:08;;;;;;;;;;;;;;;10.71;100.00;99318.88;4997497;28;20487;-86
2023/07/12 06:40:34;;;;;;;;;;;;;;;11.59;100.00;99324.88;4997452;28;20312;-85
2023/07/12 06:42:59;;;;;;;;;;;;;;;12.14;100.00;99335.13;5013542;28;19924;-87
2023/07/12 06:45:24;;;;;;;;;;;;;;;12.53;100.00;99332.94;5013035;28;20015;-88
2023/07/12 06:47:51;;;;;;;;;;;;;;;12.80;100.00;99340.25;5012529;28;19925;-87
2023/07/12 06:50:16;;;;;;;;;;;;;;;13.03;100.00;99339.72;4996157;28;19921;-86
2023/07/12 06:52:42;;;;;;;;;;;;;;;13.20;100.00;99329.88;5013193;28;19929;-85
2023/07/12 06:55:07;;;;;;;;;;;;;;;13.57;100.00;99332.94;5010188;28;19929;-85
2023/07/12 06:57:33;;;;;;;;;;;;;;;11.74;100.00;99334.69;5014241;28;20122;-85
2023/07/12 06:59:58;;;;;;;;;;;;;;;11.05;100.00;99339.19;4996217;28;19917;-86
2023/07/12 07:02:24;;;;;;;;;;;;;;;10.69;100.00;99336.63;5012265;28;20272;-87
2023/07/12 07:04:49;;;;;;;;;;;;;;;10.43;100.00;99338.78;4994565;28;19922;-84
2023/07/12 07:07:14;;;;;;;;;;;;;;;10.18;100.00;99336.47;4993145;28;19921;-83
2023/07/12 07:09:39;;;;;;;;;;;;;;;10.08;100.00;99330.72;5012393;28;19925;-83
2023/07/12 07:12:06;;;;;;;;;;;;;;;9.86;100.00;99325.63;4994629;28;20459;-86
2023/07/12 07:14:32;;;;;;;;;;;;;;;9.77;100.00;99326.06;4993449;28;19921;-85
2023/07/12 07:16:57;;;;;;;;;;;;;;;9.68;100.00;99316.75;5012368;28;20548;-85
2023/07/12 07:19:22;;;;;;;;;;;;;;;9.62;100.00;99322.31;4996611;28;20319;-84
2023/07/12 07:21:48;;;;;;;;;;;;;;;9.50;100.00;99322.91;5013667;28;19952;-85
2023/07/12 07:24:13;;;;;;;;;;;;;;;9.36;100.00;99316.44;5013173;28;19940;-85
2023/07/12 07:26:39;;;;;;;;;;;;;;;9.26;100.00;99310.72;5013227;28;19976;-85
2023/07/12 07:29:04;;;;;;;;;;;;;;;9.30;100.00;99314.06;5011730;28;19941;-84
2023/07/12 07:31:29;;;;;;;;;;;;;;;9.24;100.00;99320.50;5012254;28;19918;-84
2023/07/12 07:33:54;;;;;;;;;;;;;;;9.19;100.00;99319.88;5012668;28;19922;-84
2023/07/12 07:36:20;;;;;;;;;;;;;;;9.35;100.00;99319.16;4993360;28;19921;-84
2023/07/12 07:38:45;;;;;;;;;;;;;;;9.19;100.00;99329.56;4996176;28;19917;-84
2023/07/12 07:41:13;;;;;;;;;;;;;;;8.88;100.00;99321.19;4995996;28;20013;-84
2023/07/12 07:43:41;;;;;;;;;;;;;;;8.89;100.00;99322.06;4995919;28;19940;-84
2023/07/12 07:46:07;;;;;;;;;;;;;;;8.86;100.00;99325.69;4995273;28;20364;-84
2023/07/12 07:48:32;;;;;;;;;;;;;;;9.00;100.00;99325.09;4994450;28;19943;-84
2023/07/12 07:50:57;;;;;;;;;;;;;;;8.84;100.00;99321.38;4995760;28;19917;-84
2023/07/12 07:53:26;;;;;;;;;;;;;;;8.70;100.00;99322.84;4995676;28;20372;-87
2023/07/12 07:55:52;;;;;;;;;;;;;;;8.72;100.00;99320.16;4995837;28;19921;-84
2023/07/12 07:58:17;;;;;;;;;;;;;;;8.75;100.00;99320.00;5013148;28;19918;-84
2023/07/12 08:00:43;;;;;;;;;;;;;;;8.80;100.00;99315.38;4995391;28;19975;-84
2023/07/12 08:03:08;;;;;;;;;;;;;;;8.68;100.00;99314.13;4994307;28;20008;-84
2023/07/12 08:05:34;;;;;;;;;;;;;;;8.72;100.00;99315.72;4995375;28;20295;-85
2023/07/12 08:08:00;;;;;;;;;;;;;;;8.69;100.00;99321.13;5012148;28;19945;-84
2023/07/12 08:10:25;;;;;;;;;;;;;;;8.62;100.00;99318.84;5012667;28;19917;-85
2023/07/12 08:12:51;;;;;;;;;;;;;;;8.76;100.00;99327.03;4995427;28;19956;-84
2023/07/12 08:15:17;;;;;;;;;;;;;;;9.51;100.00;99330.78;5012092;28;19922;-86
2023/07/12 08:17:43;;;;;;;;;;;;;;;9.82;100.00;99337.28;5010865;28;19921;-85
2023/07/12 08:20:09;;;;;;;;;;;;;;;9.88;100.00;99329.06;4995401;28;19972;-86
2023/07/12 08:22:34;;;;;;;;;;;;;;;9.19;100.00;99329.56;5012709;28;20339;-86
2023/07/12 08:25:01;;;;;;;;;;;;;;;8.88;100.00;99326.47;4995078;28;19928;-85
2023/07/12 08:27:26;;;;;;;;;;;;;;;8.81;100.00;99334.75;5012637;28;19964;-85
2023/07/12 08:29:51;;;;;;;;;;;;;;;8.67;100.00;99338.81;5012797;28;19917;-85
2023/07/12 08:32:18;;;;;;;;;;;;;;;8.62;100.00;99340.81;5010974;28;19940;-85
2023/07/12 08:34:43;;;;;;;;;;;;;;;8.59;100.00;99338.28;5012793;28;19972;-84
2023/07/12 08:37:09;;;;;;;;;;;;;;;8.52;100.00;99344.72;5012847;28;19960;-85
2023/07/12 08:39:34;;;;;;;;;;;;;;;8.58;100.00;99338.34;5012971;28;19924;-85
2023/07/12 08:41:59;;;;;;;;;;;;;;;8.50;100.00;99336.91;5012874;28;19922;-85
2023/07/12 08:44:26;;;;;;;;;;;;;;;8.95;100.00;99342.94;4994492;28;19922;-85
2023/07/12 08:46:58;;;;;;;;;;;;;;;9.51;100.00;99345.75;5009964;28;20265;-84
2023/07/12 08:49:25;;;;;;;;;;;;;;;9.78;100.00;99359.50;5011119;28;19976;-85
2023/07/12 08:51:52;;;;;;;;;;;;;;;9.43;100.00;99354.06;5009694;28;19917;-85
2023/07/12 08:54:22;;;;;;;;;;;;;;;8.92;100.00;99356.28;5105299;23;19932;-85
2023/07/12 08:56:47;;;;;;;;;;;;;;;8.80;100.00;99360.28;4994782;28;19932;-85
2023/07/12 08:59:13;;;;;;;;;;;;;;;8.57;100.00;99365.66;5012775;28;19921;-85
2023/07/12 09:01:44;;;;;;;;;;;;;;;8.54;100.00;99362.25;4993373;28;19917;-85
2023/07/12 09:04:18;;;;;;;;;;;;;;;8.50;100.00;99363.31;5013126;28;19921;-84
2023/07/12 09:06:44;;;;;;;;;;;;;;;8.50;100.00;99358.03;5004582;28;19918;-85
2023/07/12 09:09:09;;;;;;;;;;;;;;;8.45;100.00;99367.91;5004078;28;19924;-85
2023/07/12 09:11:35;;;;;;;;;;;;;;;8.38;100.00;99358.50;4994512;28;19925;-86
2023/07/12 09:14:00;;;;;;;;;;;;;;;8.37;100.00;99362.03;5008541;28;19929;-87
2023/07/12 09:16:30;;;;;;;;;;;;;;;8.27;100.00;99366.00;4991596;28;19917;-85
2023/07/12 09:18:57;;;;;;;;;;;;;;;8.27;100.00;99366.84;4992692;28;19917;-84
2023/07/12 09:21:24;;;;;;;;;;;;;;;8.29;100.00;99370.25;5007780;28;19918;-84
2023/07/12 09:23:51;;;;;;;;;;;;;;;8.79;100.00;99373.56;5002734;28;19918;-84
2023/07/12 09:26:26;;;;;;;;;;;;;;;9.34;100.00;99388.84;5001606;28;19921;-84
2023/07/12 09:28:55;;;;;;;;;;;;;;;9.65;100.00;99385.66;4990959;28;19961;-83
2023/07/12 09:31:22;;;;;;;;;;;;;;;9.37;100.00;99384.28;4994337;28;19922;-84
2023/07/12 09:33:51;;;;;;;;;;;;;;;8.81;100.00;99387.59;4993242;28;19917;-84
2023/07/12 09:36:17;;;;;;;;;;;;;;;9.24;100.00;99385.75;4993927;28;19921;-84
2023/07/12 09:38:42;;;;;;;;;;;;;;;9.70;100.00;99403.97;4994019;28;19972;-84
2023/07/12 09:41:09;;;;;;;;;;;;;;;9.86;100.00;99404.13;4994340;28;19917;-83
2023/07/12 09:43:37;;;;;;;;;;;;;;;9.43;100.00;99407.81;4993675;28;19928;-84
2023/07/12 09:46:08;;;;;;;;;;;;;;;8.90;100.00;99400.41;4994093;28;19969;-84
2023/07/12 09:48:50;;;;;;;;;;;;;;;8.84;100.00;99401.53;4993062;28;19918;-84
2023/07/12 09:51:36;;;;;;;;;;;;;;;8.67;100.00;99398.72;5010643;28;19918;-84
2023/07/12 09:54:04;;;;;;;;;;;;;;;9.40;100.00;99404.44;4954472;28;20377;-84
2023/07/12 09:56:35;;;;;;;;;;;;;;;9.75;100.00;99405.50;4994271;28;19918;-85
2023/07/12 09:59:03;;;;;;;;;;;;;;;9.69;100.00;99407.56;4994160;28;19969;-84
2023/07/12 10:01:40;;;;;;;;;;;;;;;8.99;100.00;99407.94;4993709;28;19921;-85
2023/07/12 10:04:35;;;;;;;;;;;;;;;8.70;100.00;99410.00;5010926;28;19972;-84
2023/07/12 10:07:03;;;;;;;;;;;;;;;8.49;100.00;99406.47;4983203;28;19917;-84
2023/07/12 10:09:33;;;;;;;;;;;;;;;8.39;100.00;99407.72;5010104;28;19976;-85
2023/07/12 10:12:11;;;;;;;;;;;;;;;8.45;100.00;99412.78;5009713;28;19922;-88
2023/07/12 10:14:38;;;;;;;;;;;;;;;8.19;100.00;99408.50;4993834;28;19972;-85
2023/07/12 10:17:03;;;;;;;;;;;;;;;8.26;100.00;99412.63;5010231;28;20337;-84
2023/07/12 10:19:31;;;;;;;;;;;;;;;8.26;100.00;99407.34;4993980;28;19925;-84
2023/07/12 10:21:58;;;;;;;;;;;;;;;8.26;100.00;99402.06;5010849;28;19922;-84
2023/07/12 10:24:30;;;;;;;;;;;;;;;8.15;100.00;99405.16;5009940;28;20008;-84
2023/07/12 10:26:58;;;;;;;;;;;;;;;8.21;100.00;99406.66;5011725;28;20079;-84
2023/07/12 10:29:27;;;;;;;;;;;;;;;8.13;100.00;99401.69;5011389;28;19918;-85
2023/07/12 10:31:57;;;;;;;;;;;;;;;8.06;100.00;99409.88;5010078;28;19921;-84
2023/07/12 10:34:38;;;;;;;;;;;;;;;8.13;100.00;99406.13;4993850;28;19921;-84
2023/07/12 10:37:09;;;;;;;;;;;;;;;8.14;100.00;99407.84;5010199;28;20276;-84
2023/07/12 10:39:36;;;;;;;;;;;;;;;8.13;100.00;99417.53;5014966;28;20024;-85
2023/07/12 10:42:20;;;;;;;;;;;;;;;8.12;100.00;99421.09;4997333;28;19925;-84
2023/07/12 10:44:50;;;;;;;;;;;;;;;8.12;100.00;99426.38;5013625;28;19917;-84
2023/07/12 10:47:17;;;;;;;;;;;;;;;7.99;100.00;99422.47;5011891;28;20365;-83
2023/07/12 10:49:44;;;;;;;;;;;;;;;8.03;100.00;99417.94;5014927;28;19919;-83
2023/07/12 10:52:09;;;;;;;;;;;;;;;8.02;100.00;99425.00;5012594;28;19963;-84
2023/07/12 10:54:35;;;;;;;;;;;;;;;7.93;100.00;99420.94;4997005;28;19977;-84
2023/07/12 10:57:27;;;;;;;;;;;;;;;7.94;100.00;99422.63;4997417;28;19929;-84
2023/07/12 11:00:01;;;;;;;;;;;;;;;7.88;100.00;99416.75;4992520;28;19926;-84
2023/07/12 11:02:31;;;;;;;;;;;;;;;7.84;100.00;99416.00;5012018;28;19960;-86
2023/07/12 11:04:57;;;;;;;;;;;;;;;7.90;100.00;99418.41;5006960;28;19940;-86
2023/07/12 11:07:22;;;;;;;;;;;;;;;7.88;100.00;99417.63;4996856;28;19921;-86
2023/07/12 11:09:50;;;;;;;;;;;;;;;7.88;100.00;99416.75;4996923;28;20020;-94
2023/07/12 11:12:25;;;;;;;;;;;;;;;7.78;100.00;99425.00;4996631;28;19921;-88
2023/07/12 11:14:51;;;;;;;;;;;;;;;7.78;100.00;99417.06;4995744;28;20020;-84
2023/07/12 11:17:21;;;;;;;;;;;;;;;7.79;100.00;99410.03;5012929;28;20376;-84
2023/07/12 11:20:01;;;;;;;;;;;;;;;7.87;100.00;99405.34;5014195;28;20364;-84
2023/07/12 11:22:45;;;;;;;;;;;;;;;8.07;100.00;99406.34;5012510;28;19928;-84
2023/07/12 11:25:22;;;;;;;;;;;;;;;8.81;100.00;99404.28;5014279;28;19956;-84
2023/07/12 11:27:53;;;;;;;;;;;;;;;9.22;100.00;99417.53;5014066;28;19932;-83
2023/07/12 11:30:23;;;;;;;;;;;;;;;9.34;100.00;99423.22;5013972;28;19940;-83
2023/07/12 11:32:49;;;;;;;;;;;;;;;8.62;100.00;99416.53;5013074;28;20357;-83
2023/07/12 11:35:21;;;;;;;;;;;;;;;8.38;100.00;99413.94;4996561;28;19922;-84
2023/07/12 11:37:48;;;;;;;;;;;;;;;8.06;100.00;99410.78;5012531;28;19946;-84
2023/07/12 11:40:16;;;;;;;;;;;;;;;8.07;100.00;99399.28;5011589;28;19917;-84
2023/07/12 11:42:42;;;;;;;;;;;;;;;8.05;100.00;99414.31;5014101;28;20370;-84
2023/07/12 11:45:12;;;;;;;;;;;;;;;7.94;100.00;99412.09;5013982;28;19918;-84
2023/07/12 11:47:42;;;;;;;;;;;;;;;7.92;100.00;99413.09;4994588;28;20011;-84
2023/07/12 11:50:14;;;;;;;;;;;;;;;7.97;100.00;99405.84;5013182;28;19921;-86
2023/07/12 11:52:45;;;;;;;;;;;;;;;7.92;100.00;99391.97;5013407;28;19934;-84
2023/07/12 11:55:15;;;;;;;;;;;;;;;7.80;100.00;99394.16;5001384;28;20317;-85
2023/07/12 11:57:40;;;;;;;;;;;;;;;7.84;100.00;99394.91;4974949;28;20335;-84
2023/07/12 12:00:15;;;;;;;;;;;;;;;7.89;100.00;99390.31;4977144;28;20028;-84
2023/07/12 12:02:41;;;;;;;;;;;;;;;7.83;100.00;99390.53;4992588;28;20012;-84
2023/07/12 12:05:14;;;;;;;;;;;;;;;7.81;100.00;99389.75;4994068;28;19926;-84
2023/07/12 12:07:40;;;;;;;;;;;;;;;7.82;100.00;99383.56;4976203;28;20289;-85
2023/07/12 12:10:06;;;;;;;;;;;;;;;7.77;100.00;99378.44;4976443;28;19925;-84
2023/07/12 12:12:32;;;;;;;;;;;;;;;7.76;100.00;99376.72;4993694;28;20377;-84
2023/07/12 12:14:58;;;;;;;;;;;;;;;7.69;100.00;99390.19;4994115;28;19929;-83
2023/07/12 12:17:24;;;;;;;;;;;;;;;7.79;100.00;99376.59;4974370;28;20296;-85
2023/07/12 12:20:00;;;;;;;;;;;;;;;7.69;100.00;99375.25;4993623;28;19925;-84
2023/07/12 12:22:25;;;;;;;;;;;;;;;7.71;100.00;99375.19;4993509;28;20420;-84
2023/07/12 12:24:54;;;;;;;;;;;;;;;7.74;100.00;99375.94;4976013;28;19922;-85
2023/07/12 12:27:21;;;;;;;;;;;;;;;7.66;100.00;99374.47;4991024;28;19922;-87
2023/07/12 12:29:48;;;;;;;;;;;;;;;7.58;100.00;99377.44;4987624;28;20052;-84
2023/07/12 12:32:15;;;;;;;;;;;;;;;7.59;100.00;99379.13;4991280;28;19922;-85
2023/07/12 12:34:43;;;;;;;;;;;;;;;7.71;100.00;99383.09;4993289;28;19918;-84
2023/07/12 12:37:09;;;;;;;;;;;;;;;7.60;100.00;99371.16;4991327;28;19951;-85
2023/07/12 12:39:35;;;;;;;;;;;;;;;7.58;100.00;99367.72;4989239;28;20012;-84
2023/07/12 12:42:16;;;;;;;;;;;;;;;7.61;100.00;99372.91;4974084;28;19969;-85
2023/07/12 12:44:41;;;;;;;;;;;;;;;7.61;100.00;99372.00;4990807;28;19922;-84
2023/07/12 12:47:27;;;;;;;;;;;;;;;7.69;100.00;99363.81;4990263;28;19924;-84
2023/07/12 12:49:52;;;;;;;;;;;;;;;7.58;100.00;99366.88;4975504;28;19928;-85
2023/07/12 12:52:22;;;;;;;;;;;;;;;7.64;100.00;99362.22;4973045;28;20312;-85
2023/07/12 12:54:48;;;;;;;;;;;;;;;7.67;100.00;99360.38;4980527;28;19921;-84
2023/07/12 12:57:13;;;;;;;;;;;;;;;7.63;100.00;99359.66;4992832;28;19932;-82
2023/07/12 12:59:38;;;;;;;;;;;;;;;7.57;100.00;99358.09;4987916;28;19928;-85
2023/07/12 13:02:14;;;;;;;;;;;;;;;7.53;100.00;99348.59;4987224;28;19952;-87
2023/07/12 13:04:39;;;;;;;;;;;;;;;7.53;100.00;99342.44;4994247;28;19945;-85
2023/07/12 13:07:16;;;;;;;;;;;;;;;7.76;100.00;99342.44;4990416;28;19922;-85
2023/07/12 13:09:41;;;;;;;;;;;;;;;8.41;100.00;99354.84;4993528;28;19925;-87
2023/07/12 13:12:14;;;;;;;;;;;;;;;8.83;100.00;99354.88;5008483;28;19921;-85
2023/07/12 13:14:39;;;;;;;;;;;;;;;9.04;100.00;99357.53;4992984;28;20011;-85
2023/07/12 13:17:09;;;;;;;;;;;;;;;8.33;100.00;99342.00;4992519;28;20017;-86
2023/07/12 13:19:34;;;;;;;;;;;;;;;8.31;100.00;99347.31;4993477;28;19927;-84
2023/07/12 13:21:59;;;;;;;;;;;;;;;8.91;100.00;99346.63;5011461;28;20020;-85
2023/07/12 13:24:24;;;;;;;;;;;;;;;9.14;100.00;99342.97;4993266;28;19921;-84
2023/07/12 13:26:50;;;;;;;;;;;;;;;9.17;100.00;99349.94;5011131;28;20381;-85
2023/07/12 13:29:16;;;;;;;;;;;;;;;8.51;100.00;99343.88;5010835;28;20300;-85
2023/07/12 13:31:41;;;;;;;;;;;;;;;8.13;100.00;99346.25;4988410;28;20019;-82
2023/07/12 13:34:07;;;;;;;;;;;;;;;8.02;100.00;99330.00;4994215;28;20432;-84
2023/07/12 13:36:35;;;;;;;;;;;;;;;7.91;100.00;99337.47;4989932;28;20343;-85
2023/07/12 13:39:17;;;;;;;;;;;;;;;7.90;100.00;99335.78;4994612;28;19917;-85
2023/07/12 13:41:47;;;;;;;;;;;;;;;7.78;100.00;99329.19;4986715;28;20504;-85
2023/07/12 13:44:13;;;;;;;;;;;;;;;7.75;100.00;99338.06;4988685;28;19984;-85
2023/07/12 13:46:39;;;;;;;;;;;;;;;7.80;100.00;99335.25;4990614;28;19937;-88
2023/07/12 13:49:06;;;;;;;;;;;;;;;7.61;100.00;99338.63;5004274;28;19925;-85
2023/07/12 13:51:31;;;;;;;;;;;;;;;7.61;100.00;99335.09;5011137;28;20356;-85
2023/07/12 13:53:56;;;;;;;;;;;;;;;7.58;100.00;99337.88;5010933;28;19921;-85
2023/07/12 13:56:22;;;;;;;;;;;;;;;7.60;100.00;99341.31;5003817;28;19925;-85
2023/07/12 13:58:47;;;;;;;;;;;;;;;7.60;100.00;99346.59;5012028;28;19921;-85
2023/07/12 14:01:14;;;;;;;;;;;;;;;7.61;100.00;99343.88;5010094;28;19921;-85
2023/07/12 14:03:39;;;;;;;;;;;;;;;7.57;100.00;99349.34;4992820;28;19918;-85
2023/07/12 14:06:05;;;;;;;;;;;;;;;7.54;100.00;99349.44;4993049;28;19926;-83
2023/07/12 14:08:30;;;;;;;;;;;;;;;7.43;100.00;99340.13;4992660;28;19921;-84
2023/07/12 14:10:55;;;;;;;;;;;;;;;7.45;100.00;99351.50;4994198;28;19921;-85
2023/07/12 14:13:21;;;;;;;;;;;;;;;7.43;100.00;99337.50;4995626;28;19975;-84
2023/07/12 14:15:47;;;;;;;;;;;;;;;7.53;100.00;99340.69;4998079;28;19918;-85
2023/07/12 14:18:12;;;;;;;;;;;;;;;7.79;100.00;99329.13;5005467;28;19925;-84
2023/07/12 14:20:38;;;;;;;;;;;;;;;8.51;100.00;99343.03;4998041;28;19917;-85
2023/07/12 14:23:11;;;;;;;;;;;;;;;8.68;100.00;99340.56;5013878;28;19928;-85
2023/07/12 14:25:37;;;;;;;;;;;;;;;8.69;100.00;99336.13;5015139;28;20407;-85
2023/07/12 14:28:03;;;;;;;;;;;;;;;8.07;100.00;99335.09;4991462;28;19925;-85
2023/07/12 14:30:29;;;;;;;;;;;;;;;7.77;100.00;99335.38;4996753;28;19928;-85
2023/07/12 14:32:54;;;;;;;;;;;;;;;7.66;100.00;99324.38;4994261;28;19922;-85
2023/07/12 14:35:21;;;;;;;;;;;;;;;7.61;100.00;99316.63;5015046;28;20008;-85
2023/07/12 14:37:46;;;;;;;;;;;;;;;7.51;100.00;99317.91;4997096;28;20399;-85
2023/07/12 14:40:13;;;;;;;;;;;;;;;7.60;100.00;99317.56;5015361;28;19953;-86
2023/07/12 14:42:38;;;;;;;;;;;;;;;8.29;100.00;99316.63;5011574;28;19931;-85
2023/07/12 14:45:04;;;;;;;;;;;;;;;8.69;100.00;99318.47;5010388;28;19921;-86
2023/07/12 14:47:29;;;;;;;;;;;;;;;8.85;100.00;99321.31;5010469;28;19940;-85
2023/07/12 14:49:55;;;;;;;;;;;;;;;8.44;100.00;99316.03;5009564;28;19926;-84
2023/07/12 14:52:23;;;;;;;;;;;;;;;7.94;100.00;99310.97;5010187;28;19928;-85
2023/07/12 14:54:52;;;;;;;;;;;;;;;7.71;100.00;99309.25;5008744;28;20384;-85
2023/07/12 14:57:18;;;;;;;;;;;;;;;7.50;100.00;99295.09;5012762;28;19922;-85
2023/07/12 14:59:44;;;;;;;;;;;;;;;7.50;100.00;99300.38;4995716;28;19979;-85
2023/07/12 15:02:30;;;;;;;;;;;;;;;7.38;100.00;99302.56;4991048;28;19929;-85
2023/07/12 15:04:57;;;;;;;;;;;;;;;7.41;100.00;99301.59;5013805;28;19913;-85
2023/07/12 15:07:23;;;;;;;;;;;;;;;7.35;100.00;99297.41;5012800;28;20436;-85
2023/07/12 15:09:50;;;;;;;;;;;;;;;7.35;100.00;99297.41;4993911;28;19971;-85
2023/07/12 15:12:30;;;;;;;;;;;;;;;7.31;100.00;99294.94;5014613;28;19918;-85
2023/07/12 15:14:56;;;;;;;;;;;;;;;7.34;100.00;99308.00;5009061;28;19926;-85
2023/07/12 15:17:23;;;;;;;;;;;;;;;7.24;100.00;99300.44;4990751;28;20215;-85
2023/07/12 15:19:48;;;;;;;;;;;;;;;7.23;100.00;99305.78;4994761;28;20447;-85
2023/07/12 15:22:13;;;;;;;;;;;;;;;7.24;100.00;99299.56;4992609;28;19929;-86
2023/07/12 15:24:39;;;;;;;;;;;;;;;7.18;100.00;99300.69;5001521;28;19932;-86
2023/07/12 15:27:09;;;;;;;;;;;;;;;7.13;100.00;99299.97;4994089;28;19948;-86
2023/07/12 15:29:36;;;;;;;;;;;;;;;7.13;100.00;99302.59;4996236;28;19926;-84
2023/07/12 15:32:09;;;;;;;;;;;;;;;7.14;100.00;99306.09;4994124;28;19991;-87
2023/07/12 15:34:34;;;;;;;;;;;;;;;7.13;100.00;99305.22;4996463;28;20019;-84
2023/07/12 15:36:59;;;;;;;;;;;;;;;7.18;100.00;99318.25;5014312;28;20074;-85
2023/07/12 15:39:25;;;;;;;;;;;;;;;7.18;100.00;99312.97;4994477;28;19926;-86
2023/07/12 15:41:50;;;;;;;;;;;;;;;7.24;100.00;99315.38;4995380;28;19918;-85
2023/07/12 15:44:15;;;;;;;;;;;;;;;7.95;100.00;99315.34;4996564;28;19925;-84
2023/07/12 15:46:40;;;;;;;;;;;;;;;8.45;100.00;99323.00;5007698;28;19967;-85
2023/07/12 15:49:06;;;;;;;;;;;;;;;8.64;100.00;99324.91;4994996;28;19932;-84
2023/07/12 15:51:35;;;;;;;;;;;;;;;8.22;100.00;99333.63;4994646;28;19926;-86
2023/07/12 15:54:02;;;;;;;;;;;;;;;7.69;100.00;99317.22;4994172;28;19921;-84
2023/07/12 15:56:29;;;;;;;;;;;;;;;7.51;100.00;99324.03;4995097;28;19930;-85
2023/07/12 15:58:55;;;;;;;;;;;;;;;7.50;100.00;99321.47;4996118;28;20357;-84
2023/07/12 16:01:28;;;;;;;;;;;;;;;8.08;100.00;99321.00;4993310;28;19922;-85
2023/07/12 16:03:54;;;;;;;;;;;;;;;8.53;100.00;99318.25;4992451;28;19932;-84
2023/07/12 16:06:20;;;;;;;;;;;;;;;8.85;100.00;99320.47;4987141;28;19921;-84
2023/07/12 16:08:47;;;;;;;;;;;;;;;8.69;100.00;99336.13;5010323;28;20395;-84
2023/07/12 16:11:23;;;;;;;;;;;;;;;8.12;100.00;99320.81;4992090;28;20012;-84
2023/07/12 16:13:49;;;;;;;;;;;;;;;7.87;100.00;99328.84;4994595;28;20377;-84
2023/07/12 16:16:16;;;;;;;;;;;;;;;7.68;100.00;99320.78;4994640;28;19931;-85
2023/07/12 16:18:41;;;;;;;;;;;;;;;7.48;100.00;99324.16;4993869;28;19968;-84
2023/07/12 16:21:13;;;;;;;;;;;;;;;7.36;100.00;99325.47;4995760;28;19964;-84
2023/07/12 16:23:38;;;;;;;;;;;;;;;7.37;100.00;99332.47;4993913;28;20064;-85
2023/07/12 16:26:07;;;;;;;;;;;;;;;7.20;100.00;99330.47;4995209;28;20020;-85
2023/07/12 16:28:33;;;;;;;;;;;;;;;7.24;100.00;99344.38;5007435;28;19925;-85
2023/07/12 16:30:59;;;;;;;;;;;;;;;7.22;100.00;99348.84;5013176;28;20008;-86
2023/07/12 16:33:25;;;;;;;;;;;;;;;7.15;100.00;99348.22;4994173;28;20013;-85
2023/07/12 16:35:52;;;;;;;;;;;;;;;7.11;100.00;99351.84;5012857;28;20008;-84
2023/07/12 16:38:21;;;;;;;;;;;;;;;7.16;100.00;99355.19;4995538;28;19921;-85
2023/07/12 16:40:48;;;;;;;;;;;;;;;7.11;100.00;99353.66;4994698;28;19922;-84
2023/07/12 16:43:15;;;;;;;;;;;;;;;7.15;100.00;99357.88;4995820;28;20272;-84
2023/07/12 16:45:46;;;;;;;;;;;;;;;7.10;100.00;99363.34;4995474;28;20395;-84
2023/07/12 16:48:12;;;;;;;;;;;;;;;7.05;100.00;99354.72;4986230;28;20279;-86
2023/07/12 16:50:41;;;;;;;;;;;;;;;7.03;100.00;99360.03;5012902;28;19921;-86
2023/07/12 16:53:17;;;;;;;;;;;;;;;7.02;100.00;99358.31;4995240;28;19925;-85
2023/07/12 16:55:43;;;;;;;;;;;;;;;6.94;100.00;99363.00;4980304;28;19932;-84
2023/07/12 16:58:25;;;;;;;;;;;;;;;6.91;100.00;99371.00;4975744;28;20029;-85
2023/07/12 17:00:51;;;;;;;;;;;;;;;7.00;100.00;99370.66;4992996;28;19972;-87
2023/07/12 17:03:18;;;;;;;;;;;;;;;6.99;100.00;99373.34;4973963;28;20262;-85
2023/07/12 17:05:43;;;;;;;;;;;;;;;7.03;100.00;99375.84;4992981;28;19914;-84
2023/07/12 17:08:17;;;;;;;;;;;;;;;7.52;100.00;99377.66;4975574;28;19949;-84
2023/07/12 17:10:43;;;;;;;;;;;;;;;8.04;100.00;99373.03;4992957;28;19918;-84
2023/07/12 17:13:10;;;;;;;;;;;;;;;8.40;100.00;99376.91;4993026;28;20388;-84
2023/07/12 17:15:35;;;;;;;;;;;;;;;8.38;100.00;99374.34;4975530;28;20385;-84
2023/07/12 17:18:02;;;;;;;;;;;;;;;7.74;100.00;99381.19;4991662;28;19964;-85
2023/07/12 17:20:28;;;;;;;;;;;;;;;7.46;100.00;99373.44;4971069;28;19929;-84
2023/07/12 17:22:53;;;;;;;;;;;;;;;7.24;100.00;99371.59;4989048;28;19922;-84
2023/07/12 17:25:19;;;;;;;;;;;;;;;7.19;100.00;99375.31;4992850;28;20293;-85
2023/07/12 17:27:44;;;;;;;;;;;;;;;7.09;100.00;99375.63;4975220;28;19961;-83
2023/07/12 17:30:12;;;;;;;;;;;;;;;7.20;100.00;99372.63;4975232;28;19925;-83
2023/07/12 17:32:38;;;;;;;;;;;;;;;7.03;100.00;99373.19;4974058;28;19918;-87
2023/07/12 17:35:04;;;;;;;;;;;;;;;6.89;100.00;99380.72;4975262;28;19917;-83
2023/07/12 17:37:30;;;;;;;;;;;;;;;6.92;100.00;99385.88;4992815;28;20359;-84
2023/07/12 17:39:56;;;;;;;;;;;;;;;6.94;100.00;99384.09;4991052;28;19925;-84
2023/07/12 17:42:23;;;;;;;;;;;;;;;6.85;100.00;99384.38;4992837;28;19921;-83
2023/07/12 17:44:48;;;;;;;;;;;;;;;6.88;100.00;99376.38;4992295;28;20358;-83
2023/07/12 17:47:16;;;;;;;;;;;;;;;6.92;100.00;99377.97;4949317;28;19929;-83
2023/07/12 17:49:42;;;;;;;;;;;;;;;6.81;100.00;99373.09;4992389;28;19918;-83
2023/07/12 17:52:10;;;;;;;;;;;;;;;6.89;100.00;99367.56;4992130;28;19925;-84
2023/07/12 17:54:35;;;;;;;;;;;;;;;6.77;100.00;99363.56;4998138;28;20004;-84
2023/07/12 17:57:00;;;;;;;;;;;;;;;6.71;100.00;99367.25;5010292;28;20025;-84
2023/07/12 17:59:28;;;;;;;;;;;;;;;6.68;100.00;99372.63;5011151;28;19924;-85
2023/07/12 18:02:06;;;;;;;;;;;;;;;;;;;;;
2023/07/12 18:04:32;;;;;;;;;;;;;;;6.70;100.00;99389.25;5008857;28;19921;-83
2023/07/12 18:06:57;;;;;;;;;;;;;;;6.91;100.00;99386.81;5011793;28;20020;-84
2023/07/12 18:09:23;;;;;;;;;;;;;;;6.83;100.00;99391.47;5012187;28;19922;-84
2023/07/12 18:11:51;;;;;;;;;;;;;;;6.80;100.00;99383.69;5011896;28;20383;-84
2023/07/12 18:14:18;;;;;;;;;;;;;;;6.84;100.00;99393.19;4994771;28;20012;-84
2023/07/12 18:16:44;;;;;;;;;;;;;;;6.86;100.00;99391.34;4993080;28;20383;-84
2023/07/12 18:19:09;;;;;;;;;;;;;;;6.66;100.00;99398.16;5009286;28;19925;-83